sensor_id;sensor_type;location;lat;lon;timestamp;temperature;humidity
5842;DHT22;2947;52.276;9.946;2023-11-21T00:00:31;9.40;99.90
5842;DHT22;2947;52.276;9.946;2023-11-21T00:02:56;8.30;99.90
5842;DHT22;2947;52.276;9.946;2023-11-21T00:05:22;8.30;99.90
5842;DHT22;2947;52.276;9.946;2023-11-21T00:07:48;8.20;99.90
5842;DHT22;2947;52.276;9.946;2023-11-21T00:10:14;8.30;99.90
5842;DHT22;2947;52.276;9.946;2023-11-21T00:12:41;8.30;99.90
5842;DHT22;2947;52.276;9.946;2023-11-21T00:15:08;8.30;99.90
5842;DHT22;2947;52.276;9.946;2023-11-21T00:17:37;8.30;99.90
5842;DHT22;2947;52.276;9.946;2023-11-21T00:20:04;8.30;99.90
5842;DHT22;2947;52.276;9.946;2023-11-21T00:22:33;8.30;99.90
5842;DHT22;2947;52.276;9.946;2023-11-21T00:25:00;8.30;99.90
5842;DHT22;2947;52.276;9.946;2023-11-21T00:27:26;8.30;99.90
5842;DHT22;2947;52.276;9.946;2023-11-21T00:29:52;8.30;99.90
5842;DHT22;2947;52.276;9.946;2023-11-21T00:32:18;8.40;99.90
5842;DHT22;2947;52.276;9.946;2023-11-21T00:34:44;8.40;99.90
5842;DHT22;2947;52.276;9.946;2023-11-21T00:37:10;8.40;99.90
5842;DHT22;2947;52.276;9.946;2023-11-21T00:39:36;8.30;99.90
5842;DHT22;2947;52.276;9.946;2023-11-21T00:42:01;8.40;99.90
5842;DHT22;2947;52.276;9.946;2023-11-21T00:44:27;8.30;99.90
5842;DHT22;2947;52.276;9.946;2023-11-21T00:46:53;8.30;99.90
5842;DHT22;2947;52.276;9.946;2023-11-21T00:49:19;8.30;99.90
5842;DHT22;2947;52.276;9.946;2023-11-21T00:51:46;8.40;99.90
5842;DHT22;2947;52.276;9.946;2023-11-21T00:54:12;8.30;99.90
5842;DHT22;2947;52.276;9.946;2023-11-21T00:56:37;8.30;99.90
5842;DHT22;2947;52.276;9.946;2023-11-21T00:59:03;8.40;99.90
5842;DHT22;2947;52.276;9.946;2023-11-21T01:01:30;8.30;99.90
5842;DHT22;2947;52.276;9.946;2023-11-21T01:03:56;8.30;99.90
5842;DHT22;2947;52.276;9.946;2023-11-21T01:06:21;8.30;99.90
5842;DHT22;2947;52.276;9.946;2023-11-21T01:08:47;8.30;99.90
5842;DHT22;2947;52.276;9.946;2023-11-21T01:11:13;8.40;99.90
5842;DHT22;2947;52.276;9.946;2023-11-21T01:13:40;8.40;99.90
5842;DHT22;2947;52.276;9.946;2023-11-21T01:16:06;8.40;99.90
5842;DHT22;2947;52.276;9.946;2023-11-21T01:18:33;8.40;99.90
5842;DHT22;2947;52.276;9.946;2023-11-21T01:20:58;8.40;99.90
5842;DHT22;2947;52.276;9.946;2023-11-21T01:23:26;8.40;99.90
5842;DHT22;2947;52.276;9.946;2023-11-21T01:25:52;8.50;99.90
5842;DHT22;2947;52.276;9.946;2023-11-21T01:28:20;8.40;99.90
5842;DHT22;2947;52.276;9.946;2023-11-21T01:30:46;8.40;99.90
5842;DHT22;2947;52.276;9.946;2023-11-21T01:33:11;8.40;99.90
5842;DHT22;2947;52.276;9.946;2023-11-21T01:35:37;8.60;99.90
5842;DHT22;2947;52.276;9.946;2023-11-21T01:38:03;8.40;99.90
5842;DHT22;2947;52.276;9.946;2023-11-21T01:40:29;8.40;99.90
5842;DHT22;2947;52.276;9.946;2023-11-21T01:42:56;8.40;99.90
5842;DHT22;2947;52.276;9.946;2023-11-21T01:45:23;8.40;99.90
5842;DHT22;2947;52.276;9.946;2023-11-21T01:47:50;7.70;99.90
5842;DHT22;2947;52.276;9.946;2023-11-21T01:50:17;8.40;99.90
5842;DHT22;2947;52.276;9.946;2023-11-21T01:52:47;8.40;99.90
5842;DHT22;2947;52.276;9.946;2023-11-21T01:55:15;8.50;99.90
5842;DHT22;2947;52.276;9.946;2023-11-21T01:57:46;9.20;99.90
5842;DHT22;2947;52.276;9.946;2023-11-21T02:00:12;8.40;99.90
5842;DHT22;2947;52.276;9.946;2023-11-21T02:02:45;8.50;99.90
5842;DHT22;2947;52.276;9.946;2023-11-21T02:05:12;8.50;99.90
5842;DHT22;2947;52.276;9.946;2023-11-21T02:07:39;8.50;99.90
5842;DHT22;2947;52.276;9.946;2023-11-21T02:10:07;8.40;99.90
5842;DHT22;2947;52.276;9.946;2023-11-21T02:12:33;8.50;99.90
5842;DHT22;2947;52.276;9.946;2023-11-21T02:15:01;8.40;99.90
5842;DHT22;2947;52.276;9.946;2023-11-21T02:17:30;8.40;99.90
5842;DHT22;2947;52.276;9.946;2023-11-21T02:19:58;8.40;99.90
5842;DHT22;2947;52.276;9.946;2023-11-21T02:22:30;8.40;99.90
5842;DHT22;2947;52.276;9.946;2023-11-21T02:24:56;8.40;99.90
5842;DHT22;2947;52.276;9.946;2023-11-21T02:27:24;8.40;99.90
5842;DHT22;2947;52.276;9.946;2023-11-21T02:29:50;8.40;99.90
5842;DHT22;2947;52.276;9.946;2023-11-21T02:32:16;8.30;99.90
5842;DHT22;2947;52.276;9.946;2023-11-21T02:34:44;8.30;99.90
5842;DHT22;2947;52.276;9.946;2023-11-21T02:37:10;8.30;99.90
5842;DHT22;2947;52.276;9.946;2023-11-21T02:39:36;8.30;99.90
5842;DHT22;2947;52.276;9.946;2023-11-21T02:42:03;8.30;99.90
5842;DHT22;2947;52.276;9.946;2023-11-21T02:44:29;8.30;99.90
5842;DHT22;2947;52.276;9.946;2023-11-21T02:46:55;8.30;99.90
5842;DHT22;2947;52.276;9.946;2023-11-21T02:49:23;9.20;99.90
5842;DHT22;2947;52.276;9.946;2023-11-21T02:51:48;8.30;99.90
5842;DHT22;2947;52.276;9.946;2023-11-21T02:54:14;8.30;99.90
5842;DHT22;2947;52.276;9.946;2023-11-21T02:56:40;8.30;99.90
5842;DHT22;2947;52.276;9.946;2023-11-21T02:59:05;8.30;99.90
5842;DHT22;2947;52.276;9.946;2023-11-21T03:01:31;7.60;99.90
5842;DHT22;2947;52.276;9.946;2023-11-21T03:03:57;8.30;99.90
5842;DHT22;2947;52.276;9.946;2023-11-21T03:06:23;8.30;99.90
5842;DHT22;2947;52.276;9.946;2023-11-21T03:08:49;8.30;99.90
5842;DHT22;2947;52.276;9.946;2023-11-21T03:11:14;8.30;99.90
5842;DHT22;2947;52.276;9.946;2023-11-21T03:13:41;8.30;99.90
5842;DHT22;2947;52.276;9.946;2023-11-21T03:16:08;8.30;99.90
5842;DHT22;2947;52.276;9.946;2023-11-21T03:18:36;8.30;99.90
5842;DHT22;2947;52.276;9.946;2023-11-21T03:21:06;8.30;99.90
5842;DHT22;2947;52.276;9.946;2023-11-21T03:23:34;8.30;99.90
5842;DHT22;2947;52.276;9.946;2023-11-21T03:26:01;8.30;99.90
5842;DHT22;2947;52.276;9.946;2023-11-21T03:28:27;8.40;99.90
5842;DHT22;2947;52.276;9.946;2023-11-21T03:30:54;8.30;99.90
5842;DHT22;2947;52.276;9.946;2023-11-21T03:33:20;8.40;99.90
5842;DHT22;2947;52.276;9.946;2023-11-21T03:35:45;8.30;99.90
5842;DHT22;2947;52.276;9.946;2023-11-21T03:38:11;8.30;99.90
5842;DHT22;2947;52.276;9.946;2023-11-21T03:40:37;8.30;99.90
5842;DHT22;2947;52.276;9.946;2023-11-21T03:43:04;8.40;99.90
5842;DHT22;2947;52.276;9.946;2023-11-21T03:45:31;8.40;99.90
5842;DHT22;2947;52.276;9.946;2023-11-21T03:47:57;8.40;99.90
5842;DHT22;2947;52.276;9.946;2023-11-21T03:50:23;8.40;99.90
5842;DHT22;2947;52.276;9.946;2023-11-21T03:52:49;8.40;99.90
5842;DHT22;2947;52.276;9.946;2023-11-21T03:55:14;8.40;99.90
5842;DHT22;2947;52.276;9.946;2023-11-21T03:57:40;8.40;99.90
5842;DHT22;2947;52.276;9.946;2023-11-21T04:00:07;8.40;99.90
5842;DHT22;2947;52.276;9.946;2023-11-21T04:02:35;8.40;99.90
5842;DHT22;2947;52.276;9.946;2023-11-21T04:05:01;8.40;99.90
5842;DHT22;2947;52.276;9.946;2023-11-21T04:07:28;8.40;99.90
5842;DHT22;2947;52.276;9.946;2023-11-21T04:09:54;8.40;99.90
5842;DHT22;2947;52.276;9.946;2023-11-21T04:12:20;8.40;99.90
5842;DHT22;2947;52.276;9.946;2023-11-21T04:14:46;8.40;99.90
5842;DHT22;2947;52.276;9.946;2023-11-21T04:17:11;8.50;99.90
5842;DHT22;2947;52.276;9.946;2023-11-21T04:19:37;8.50;99.90
5842;DHT22;2947;52.276;9.946;2023-11-21T04:22:03;8.50;99.90
5842;DHT22;2947;52.276;9.946;2023-11-21T04:24:29;8.50;99.90
5842;DHT22;2947;52.276;9.946;2023-11-21T04:26:55;8.60;99.90
5842;DHT22;2947;52.276;9.946;2023-11-21T04:29:21;8.60;99.90
5842;DHT22;2947;52.276;9.946;2023-11-21T04:31:46;8.60;99.90
5842;DHT22;2947;52.276;9.946;2023-11-21T04:34:14;8.60;99.90
5842;DHT22;2947;52.276;9.946;2023-11-21T04:36:40;8.60;99.90
5842;DHT22;2947;52.276;9.946;2023-11-21T04:39:05;8.60;99.90
5842;DHT22;2947;52.276;9.946;2023-11-21T04:41:32;8.70;99.90
5842;DHT22;2947;52.276;9.946;2023-11-21T04:43:58;8.60;99.90
5842;DHT22;2947;52.276;9.946;2023-11-21T04:46:26;8.50;99.90
5842;DHT22;2947;52.276;9.946;2023-11-21T04:48:52;8.60;99.90
5842;DHT22;2947;52.276;9.946;2023-11-21T04:51:18;8.60;99.90
5842;DHT22;2947;52.276;9.946;2023-11-21T04:53:43;8.60;99.90
5842;DHT22;2947;52.276;9.946;2023-11-21T04:56:09;8.60;99.90
5842;DHT22;2947;52.276;9.946;2023-11-21T04:58:35;8.60;99.90
5842;DHT22;2947;52.276;9.946;2023-11-21T05:01:01;8.60;99.90
5842;DHT22;2947;52.276;9.946;2023-11-21T05:03:27;8.60;99.90
5842;DHT22;2947;52.276;9.946;2023-11-21T05:05:55;8.60;99.90
5842;DHT22;2947;52.276;9.946;2023-11-21T05:08:21;8.60;99.90
5842;DHT22;2947;52.276;9.946;2023-11-21T05:10:47;8.60;99.90
5842;DHT22;2947;52.276;9.946;2023-11-21T05:13:14;8.60;99.90
5842;DHT22;2947;52.276;9.946;2023-11-21T05:15:43;8.60;99.90
5842;DHT22;2947;52.276;9.946;2023-11-21T05:18:09;8.70;99.90
5842;DHT22;2947;52.276;9.946;2023-11-21T05:20:35;8.60;99.90
5842;DHT22;2947;52.276;9.946;2023-11-21T05:23:01;8.70;99.90
5842;DHT22;2947;52.276;9.946;2023-11-21T05:25:27;8.60;99.90
5842;DHT22;2947;52.276;9.946;2023-11-21T05:27:53;8.70;99.90
5842;DHT22;2947;52.276;9.946;2023-11-21T05:30:21;8.60;99.90
5842;DHT22;2947;52.276;9.946;2023-11-21T05:32:47;8.70;99.90
5842;DHT22;2947;52.276;9.946;2023-11-21T05:35:15;8.70;99.90
5842;DHT22;2947;52.276;9.946;2023-11-21T05:37:42;8.70;99.90
5842;DHT22;2947;52.276;9.946;2023-11-21T05:40:08;8.70;99.90
5842;DHT22;2947;52.276;9.946;2023-11-21T05:42:35;8.70;99.90
5842;DHT22;2947;52.276;9.946;2023-11-21T05:45:03;8.70;99.90
5842;DHT22;2947;52.276;9.946;2023-11-21T05:47:45;8.70;99.90
5842;DHT22;2947;52.276;9.946;2023-11-21T05:50:13;8.60;99.90
5842;DHT22;2947;52.276;9.946;2023-11-21T05:52:42;8.70;99.90
5842;DHT22;2947;52.276;9.946;2023-11-21T05:55:11;8.70;99.90
5842;DHT22;2947;52.276;9.946;2023-11-21T05:57:38;8.70;99.90
5842;DHT22;2947;52.276;9.946;2023-11-21T06:00:06;8.70;99.90
5842;DHT22;2947;52.276;9.946;2023-11-21T06:02:39;8.70;99.90
5842;DHT22;2947;52.276;9.946;2023-11-21T06:05:07;8.70;99.90
5842;DHT22;2947;52.276;9.946;2023-11-21T06:07:33;8.60;99.90
5842;DHT22;2947;52.276;9.946;2023-11-21T06:10:03;8.60;99.90
5842;DHT22;2947;52.276;9.946;2023-11-21T06:12:35;8.60;99.90
5842;DHT22;2947;52.276;9.946;2023-11-21T06:15:05;8.60;99.90
5842;DHT22;2947;52.276;9.946;2023-11-21T06:17:34;8.70;99.90
5842;DHT22;2947;52.276;9.946;2023-11-21T06:20:07;8.60;99.90
5842;DHT22;2947;52.276;9.946;2023-11-21T06:22:41;8.60;99.90
5842;DHT22;2947;52.276;9.946;2023-11-21T06:25:09;9.50;99.90
5842;DHT22;2947;52.276;9.946;2023-11-21T06:27:41;8.60;99.90
5842;DHT22;2947;52.276;9.946;2023-11-21T06:30:08;8.60;99.90
5842;DHT22;2947;52.276;9.946;2023-11-21T06:32:36;8.60;99.90
5842;DHT22;2947;52.276;9.946;2023-11-21T06:35:03;8.60;99.90
5842;DHT22;2947;52.276;9.946;2023-11-21T06:37:29;8.60;99.90
5842;DHT22;2947;52.276;9.946;2023-11-21T06:39:57;8.70;99.90
5842;DHT22;2947;52.276;9.946;2023-11-21T06:42:24;8.60;99.90
5842;DHT22;2947;52.276;9.946;2023-11-21T06:44:50;8.60;99.90
5842;DHT22;2947;52.276;9.946;2023-11-21T06:47:20;8.70;99.90
5842;DHT22;2947;52.276;9.946;2023-11-21T06:49:46;8.70;99.90
5842;DHT22;2947;52.276;9.946;2023-11-21T06:52:13;8.70;99.90
5842;DHT22;2947;52.276;9.946;2023-11-21T06:54:39;8.70;99.90
5842;DHT22;2947;52.276;9.946;2023-11-21T06:57:05;8.70;99.90
5842;DHT22;2947;52.276;9.946;2023-11-21T06:59:31;8.70;99.90
5842;DHT22;2947;52.276;9.946;2023-11-21T07:01:57;8.60;99.90
5842;DHT22;2947;52.276;9.946;2023-11-21T07:04:22;8.60;99.90
5842;DHT22;2947;52.276;9.946;2023-11-21T07:06:49;8.40;99.90
5842;DHT22;2947;52.276;9.946;2023-11-21T07:09:15;8.20;99.90
5842;DHT22;2947;52.276;9.946;2023-11-21T07:11:41;8.20;99.90
5842;DHT22;2947;52.276;9.946;2023-11-21T07:14:07;8.20;99.90
5842;DHT22;2947;52.276;9.946;2023-11-21T07:16:35;8.10;99.90
5842;DHT22;2947;52.276;9.946;2023-11-21T07:19:09;8.00;99.90
5842;DHT22;2947;52.276;9.946;2023-11-21T07:21:35;7.90;99.90
5842;DHT22;2947;52.276;9.946;2023-11-21T07:24:02;7.90;99.90
5842;DHT22;2947;52.276;9.946;2023-11-21T07:26:32;7.80;99.90
5842;DHT22;2947;52.276;9.946;2023-11-21T07:28:59;7.70;99.90
5842;DHT22;2947;52.276;9.946;2023-11-21T07:31:26;9.40;99.90
5842;DHT22;2947;52.276;9.946;2023-11-21T07:33:52;7.70;99.90
5842;DHT22;2947;52.276;9.946;2023-11-21T07:36:19;7.70;99.90
5842;DHT22;2947;52.276;9.946;2023-11-21T07:38:46;7.60;99.90
5842;DHT22;2947;52.276;9.946;2023-11-21T07:41:13;7.60;99.90
5842;DHT22;2947;52.276;9.946;2023-11-21T07:43:41;7.50;99.90
5842;DHT22;2947;52.276;9.946;2023-11-21T07:46:08;7.50;99.90
5842;DHT22;2947;52.276;9.946;2023-11-21T07:48:34;8.40;99.90
5842;DHT22;2947;52.276;9.946;2023-11-21T07:51:01;7.50;99.90
5842;DHT22;2947;52.276;9.946;2023-11-21T07:53:30;7.50;99.90
5842;DHT22;2947;52.276;9.946;2023-11-21T07:55:58;7.50;99.90
5842;DHT22;2947;52.276;9.946;2023-11-21T07:58:25;7.40;99.90
5842;DHT22;2947;52.276;9.946;2023-11-21T08:00:51;7.80;99.90
5842;DHT22;2947;52.276;9.946;2023-11-21T08:03:17;7.40;99.90
5842;DHT22;2947;52.276;9.946;2023-11-21T08:05:43;7.40;99.90
5842;DHT22;2947;52.276;9.946;2023-11-21T08:08:09;7.30;99.90
5842;DHT22;2947;52.276;9.946;2023-11-21T08:10:35;7.40;99.90
5842;DHT22;2947;52.276;9.946;2023-11-21T08:13:05;7.30;99.90
5842;DHT22;2947;52.276;9.946;2023-11-21T08:15:31;8.50;99.90
5842;DHT22;2947;52.276;9.946;2023-11-21T08:17:58;7.20;99.90
5842;DHT22;2947;52.276;9.946;2023-11-21T08:20:26;7.20;99.90
5842;DHT22;2947;52.276;9.946;2023-11-21T08:22:52;7.20;99.90
5842;DHT22;2947;52.276;9.946;2023-11-21T08:25:18;7.20;99.90
5842;DHT22;2947;52.276;9.946;2023-11-21T08:27:46;7.20;99.90
5842;DHT22;2947;52.276;9.946;2023-11-21T08:30:12;7.20;99.90
5842;DHT22;2947;52.276;9.946;2023-11-21T08:32:39;7.10;99.90
5842;DHT22;2947;52.276;9.946;2023-11-21T08:35:07;7.20;99.90
5842;DHT22;2947;52.276;9.946;2023-11-21T08:37:33;7.20;99.90
5842;DHT22;2947;52.276;9.946;2023-11-21T08:40:05;7.20;99.90
5842;DHT22;2947;52.276;9.946;2023-11-21T08:42:37;7.20;99.90
5842;DHT22;2947;52.276;9.946;2023-11-21T08:45:04;7.20;99.90
5842;DHT22;2947;52.276;9.946;2023-11-21T08:47:31;7.10;99.90
5842;DHT22;2947;52.276;9.946;2023-11-21T08:49:57;7.20;99.90
5842;DHT22;2947;52.276;9.946;2023-11-21T08:52:24;7.10;99.90
5842;DHT22;2947;52.276;9.946;2023-11-21T08:54:50;7.20;99.90
5842;DHT22;2947;52.276;9.946;2023-11-21T08:57:24;7.10;99.90
5842;DHT22;2947;52.276;9.946;2023-11-21T08:59:50;7.10;99.90
5842;DHT22;2947;52.276;9.946;2023-11-21T09:02:22;7.10;99.90
5842;DHT22;2947;52.276;9.946;2023-11-21T09:04:49;7.10;99.90
5842;DHT22;2947;52.276;9.946;2023-11-21T09:07:16;6.60;99.90
5842;DHT22;2947;52.276;9.946;2023-11-21T09:09:41;7.00;99.90
5842;DHT22;2947;52.276;9.946;2023-11-21T09:12:07;6.90;99.90
5842;DHT22;2947;52.276;9.946;2023-11-21T09:14:36;6.90;99.90
5842;DHT22;2947;52.276;9.946;2023-11-21T09:17:02;6.90;99.90
5842;DHT22;2947;52.276;9.946;2023-11-21T09:19:28;6.90;99.90
5842;DHT22;2947;52.276;9.946;2023-11-21T09:21:54;6.90;99.90
5842;DHT22;2947;52.276;9.946;2023-11-21T09:24:22;7.00;99.90
5842;DHT22;2947;52.276;9.946;2023-11-21T09:26:48;6.90;99.90
5842;DHT22;2947;52.276;9.946;2023-11-21T09:29:14;7.00;99.90
5842;DHT22;2947;52.276;9.946;2023-11-21T09:31:41;7.00;99.90
5842;DHT22;2947;52.276;9.946;2023-11-21T09:34:07;7.10;99.90
5842;DHT22;2947;52.276;9.946;2023-11-21T09:36:33;7.10;99.90
5842;DHT22;2947;52.276;9.946;2023-11-21T09:39:00;7.30;99.90
5842;DHT22;2947;52.276;9.946;2023-11-21T09:41:43;7.10;99.90
5842;DHT22;2947;52.276;9.946;2023-11-21T09:44:13;7.10;99.90
5842;DHT22;2947;52.276;9.946;2023-11-21T09:46:56;7.20;99.90
5842;DHT22;2947;52.276;9.946;2023-11-21T09:49:26;7.80;99.90
5842;DHT22;2947;52.276;9.946;2023-11-21T09:51:55;7.20;99.90
5842;DHT22;2947;52.276;9.946;2023-11-21T09:54:25;7.30;99.90
5842;DHT22;2947;52.276;9.946;2023-11-21T09:56:50;7.30;99.90
5842;DHT22;2947;52.276;9.946;2023-11-21T09:59:16;7.30;99.90
5842;DHT22;2947;52.276;9.946;2023-11-21T10:01:42;7.30;99.90
5842;DHT22;2947;52.276;9.946;2023-11-21T10:04:11;6.30;99.90
5842;DHT22;2947;52.276;9.946;2023-11-21T10:06:39;7.30;99.90
5842;DHT22;2947;52.276;9.946;2023-11-21T10:09:10;7.30;99.90
5842;DHT22;2947;52.276;9.946;2023-11-21T10:11:43;7.30;99.90
5842;DHT22;2947;52.276;9.946;2023-11-21T10:14:12;7.30;99.90
5842;DHT22;2947;52.276;9.946;2023-11-21T10:16:40;7.40;99.90
5842;DHT22;2947;52.276;9.946;2023-11-21T10:19:10;7.40;99.90
5842;DHT22;2947;52.276;9.946;2023-11-21T10:21:41;7.40;99.90
5842;DHT22;2947;52.276;9.946;2023-11-21T10:24:07;7.40;99.90
5842;DHT22;2947;52.276;9.946;2023-11-21T10:26:33;7.40;99.90
5842;DHT22;2947;52.276;9.946;2023-11-21T10:29:01;7.40;99.90
5842;DHT22;2947;52.276;9.946;2023-11-21T10:31:30;7.30;99.90
5842;DHT22;2947;52.276;9.946;2023-11-21T10:34:18;7.30;99.90
5842;DHT22;2947;52.276;9.946;2023-11-21T10:36:45;7.30;99.90
5842;DHT22;2947;52.276;9.946;2023-11-21T10:39:18;7.30;99.90
5842;DHT22;2947;52.276;9.946;2023-11-21T10:41:45;7.20;99.90
5842;DHT22;2947;52.276;9.946;2023-11-21T10:44:18;7.20;99.90
5842;DHT22;2947;52.276;9.946;2023-11-21T10:46:51;7.20;99.90
5842;DHT22;2947;52.276;9.946;2023-11-21T10:49:21;7.20;99.90
5842;DHT22;2947;52.276;9.946;2023-11-21T10:51:50;7.20;99.90
5842;DHT22;2947;52.276;9.946;2023-11-21T10:54:22;7.20;99.90
5842;DHT22;2947;52.276;9.946;2023-11-21T10:56:51;7.20;99.90
5842;DHT22;2947;52.276;9.946;2023-11-21T10:59:23;7.20;99.90
5842;DHT22;2947;52.276;9.946;2023-11-21T11:01:50;7.30;99.90
5842;DHT22;2947;52.276;9.946;2023-11-21T11:04:22;7.20;99.90
5842;DHT22;2947;52.276;9.946;2023-11-21T11:07:11;7.30;99.90
5842;DHT22;2947;52.276;9.946;2023-11-21T11:09:38;7.20;99.90
5842;DHT22;2947;52.276;9.946;2023-11-21T11:12:04;7.20;99.90
5842;DHT22;2947;52.276;9.946;2023-11-21T11:14:30;7.20;99.90
5842;DHT22;2947;52.276;9.946;2023-11-21T11:16:58;7.30;99.90
5842;DHT22;2947;52.276;9.946;2023-11-21T11:19:25;7.30;99.90
5842;DHT22;2947;52.276;9.946;2023-11-21T11:27:37;7.40;99.90
5842;DHT22;2947;52.276;9.946;2023-11-21T11:30:25;7.40;99.90
5842;DHT22;2947;52.276;9.946;2023-11-21T11:33:12;7.30;99.90
5842;DHT22;2947;52.276;9.946;2023-11-21T11:38:46;7.30;99.90
5842;DHT22;2947;52.276;9.946;2023-11-21T11:41:27;7.40;99.90
5842;DHT22;2947;52.276;9.946;2023-11-21T11:43:58;7.40;99.90
5842;DHT22;2947;52.276;9.946;2023-11-21T11:46:44;7.40;99.90
5842;DHT22;2947;52.276;9.946;2023-11-21T11:49:28;7.40;99.90
5842;DHT22;2947;52.276;9.946;2023-11-21T11:52:39;7.40;99.90
5842;DHT22;2947;52.276;9.946;2023-11-21T11:55:13;7.40;99.90
5842;DHT22;2947;52.276;9.946;2023-11-21T11:57:43;7.40;99.90
5842;DHT22;2947;52.276;9.946;2023-11-21T12:02:55;7.40;99.90
5842;DHT22;2947;52.276;9.946;2023-11-21T12:05:29;7.50;99.90
5842;DHT22;2947;52.276;9.946;2023-11-21T12:08:00;7.50;99.90
5842;DHT22;2947;52.276;9.946;2023-11-21T12:10:31;7.50;99.90
5842;DHT22;2947;52.276;9.946;2023-11-21T12:13:00;7.50;99.90
5842;DHT22;2947;52.276;9.946;2023-11-21T12:15:33;7.50;99.90
5842;DHT22;2947;52.276;9.946;2023-11-21T12:17:59;7.50;99.90
5842;DHT22;2947;52.276;9.946;2023-11-21T12:20:26;7.60;99.90
5842;DHT22;2947;52.276;9.946;2023-11-21T12:22:56;7.60;99.90
5842;DHT22;2947;52.276;9.946;2023-11-21T12:25:29;7.60;99.90
5842;DHT22;2947;52.276;9.946;2023-11-21T12:27:58;7.50;99.90
5842;DHT22;2947;52.276;9.946;2023-11-21T12:30:35;7.60;99.90
5842;DHT22;2947;52.276;9.946;2023-11-21T12:33:04;8.90;99.90
5842;DHT22;2947;52.276;9.946;2023-11-21T12:35:33;7.60;99.90
5842;DHT22;2947;52.276;9.946;2023-11-21T12:38:00;7.70;99.90
5842;DHT22;2947;52.276;9.946;2023-11-21T12:40:30;7.60;99.90
5842;DHT22;2947;52.276;9.946;2023-11-21T12:42:58;7.70;99.90
5842;DHT22;2947;52.276;9.946;2023-11-21T12:45:27;7.70;99.90
5842;DHT22;2947;52.276;9.946;2023-11-21T12:48:04;7.70;99.90
5842;DHT22;2947;52.276;9.946;2023-11-21T12:50:37;7.70;99.90
5842;DHT22;2947;52.276;9.946;2023-11-21T12:53:09;7.80;99.90
5842;DHT22;2947;52.276;9.946;2023-11-21T12:55:37;7.70;99.90
5842;DHT22;2947;52.276;9.946;2023-11-21T12:58:05;8.20;99.90
5842;DHT22;2947;52.276;9.946;2023-11-21T13:00:39;7.70;99.90
5842;DHT22;2947;52.276;9.946;2023-11-21T13:03:08;7.70;99.90
5842;DHT22;2947;52.276;9.946;2023-11-21T13:05:38;7.70;99.90
5842;DHT22;2947;52.276;9.946;2023-11-21T13:08:06;7.70;99.90
5842;DHT22;2947;52.276;9.946;2023-11-21T13:10:34;7.70;99.90
5842;DHT22;2947;52.276;9.946;2023-11-21T13:13:06;7.70;99.90
5842;DHT22;2947;52.276;9.946;2023-11-21T13:15:40;7.70;99.90
5842;DHT22;2947;52.276;9.946;2023-11-21T13:18:08;7.70;99.90
5842;DHT22;2947;52.276;9.946;2023-11-21T13:20:37;7.70;99.90
5842;DHT22;2947;52.276;9.946;2023-11-21T13:23:07;7.70;99.90
5842;DHT22;2947;52.276;9.946;2023-11-21T13:25:34;7.70;99.90
5842;DHT22;2947;52.276;9.946;2023-11-21T13:28:00;7.70;99.90
5842;DHT22;2947;52.276;9.946;2023-11-21T13:30:26;7.70;99.90
5842;DHT22;2947;52.276;9.946;2023-11-21T13:33:01;8.10;99.90
5842;DHT22;2947;52.276;9.946;2023-11-21T13:35:28;8.60;99.90
5842;DHT22;2947;52.276;9.946;2023-11-21T13:38:08;7.60;99.90
5842;DHT22;2947;52.276;9.946;2023-11-21T13:40:40;7.60;99.90
5842;DHT22;2947;52.276;9.946;2023-11-21T13:43:13;7.60;99.90
5842;DHT22;2947;52.276;9.946;2023-11-21T13:45:39;7.60;99.90
5842;DHT22;2947;52.276;9.946;2023-11-21T13:48:06;7.60;99.90
5842;DHT22;2947;52.276;9.946;2023-11-21T13:50:41;7.60;99.90
5842;DHT22;2947;52.276;9.946;2023-11-21T13:53:14;7.50;99.90
5842;DHT22;2947;52.276;9.946;2023-11-21T13:55:52;7.50;99.90
5842;DHT22;2947;52.276;9.946;2023-11-21T13:58:23;7.40;99.90
5842;DHT22;2947;52.276;9.946;2023-11-21T14:01:08;7.40;99.90
5842;DHT22;2947;52.276;9.946;2023-11-21T14:03:52;7.30;99.90
5842;DHT22;2947;52.276;9.946;2023-11-21T14:06:23;7.40;99.90
5842;DHT22;2947;52.276;9.946;2023-11-21T14:08:57;7.40;99.90
5842;DHT22;2947;52.276;9.946;2023-11-21T14:11:23;6.50;99.90
5842;DHT22;2947;52.276;9.946;2023-11-21T14:13:49;7.40;99.90
5842;DHT22;2947;52.276;9.946;2023-11-21T14:16:17;7.30;99.90
5842;DHT22;2947;52.276;9.946;2023-11-21T14:18:43;7.30;99.90
5842;DHT22;2947;52.276;9.946;2023-11-21T14:21:21;7.30;99.90
5842;DHT22;2947;52.276;9.946;2023-11-21T14:23:47;7.30;99.90
5842;DHT22;2947;52.276;9.946;2023-11-21T14:26:14;7.30;99.90
5842;DHT22;2947;52.276;9.946;2023-11-21T14:28:41;7.30;99.90
5842;DHT22;2947;52.276;9.946;2023-11-21T14:31:08;7.20;99.90
5842;DHT22;2947;52.276;9.946;2023-11-21T14:33:38;7.20;99.90
5842;DHT22;2947;52.276;9.946;2023-11-21T14:36:05;7.20;99.90
5842;DHT22;2947;52.276;9.946;2023-11-21T14:38:33;7.10;99.90
5842;DHT22;2947;52.276;9.946;2023-11-21T14:40:59;7.20;99.90
5842;DHT22;2947;52.276;9.946;2023-11-21T14:43:25;7.20;91.10
5842;DHT22;2947;52.276;9.946;2023-11-21T14:45:55;7.10;96.20
5842;DHT22;2947;52.276;9.946;2023-11-21T14:48:24;7.10;99.90
5842;DHT22;2947;52.276;9.946;2023-11-21T14:51:08;7.10;99.90
5842;DHT22;2947;52.276;9.946;2023-11-21T14:53:38;7.10;99.90
5842;DHT22;2947;52.276;9.946;2023-11-21T14:56:09;7.20;99.90
5842;DHT22;2947;52.276;9.946;2023-11-21T14:58:35;7.10;99.90
5842;DHT22;2947;52.276;9.946;2023-11-21T15:01:03;7.10;99.90
5842;DHT22;2947;52.276;9.946;2023-11-21T15:03:29;7.10;99.90
5842;DHT22;2947;52.276;9.946;2023-11-21T15:08:44;7.00;99.90
5842;DHT22;2947;52.276;9.946;2023-11-21T15:11:18;7.00;99.90
5842;DHT22;2947;52.276;9.946;2023-11-21T15:13:44;7.00;99.90
5842;DHT22;2947;52.276;9.946;2023-11-21T15:16:13;7.00;99.90
5842;DHT22;2947;52.276;9.946;2023-11-21T15:18:39;6.90;99.90
5842;DHT22;2947;52.276;9.946;2023-11-21T15:21:05;6.90;99.90
5842;DHT22;2947;52.276;9.946;2023-11-21T15:23:30;6.90;99.90
5842;DHT22;2947;52.276;9.946;2023-11-21T15:26:00;6.90;99.90
5842;DHT22;2947;52.276;9.946;2023-11-21T15:28:29;6.90;99.90
5842;DHT22;2947;52.276;9.946;2023-11-21T15:30:54;6.90;99.90
5842;DHT22;2947;52.276;9.946;2023-11-21T15:33:23;6.80;99.90
5842;DHT22;2947;52.276;9.946;2023-11-21T15:35:48;6.90;99.90
5842;DHT22;2947;52.276;9.946;2023-11-21T15:38:14;6.90;99.90
5842;DHT22;2947;52.276;9.946;2023-11-21T15:40:40;6.80;99.90
5842;DHT22;2947;52.276;9.946;2023-11-21T15:43:05;6.70;99.90
5842;DHT22;2947;52.276;9.946;2023-11-21T15:45:32;6.60;99.90
5842;DHT22;2947;52.276;9.946;2023-11-21T15:47:58;6.50;99.90
5842;DHT22;2947;52.276;9.946;2023-11-21T15:50:26;6.50;99.90
5842;DHT22;2947;52.276;9.946;2023-11-21T15:52:52;6.40;99.90
5842;DHT22;2947;52.276;9.946;2023-11-21T15:55:17;6.40;99.90
5842;DHT22;2947;52.276;9.946;2023-11-21T15:57:44;6.40;99.90
5842;DHT22;2947;52.276;9.946;2023-11-21T16:00:11;6.40;99.90
5842;DHT22;2947;52.276;9.946;2023-11-21T16:02:45;6.30;99.90
5842;DHT22;2947;52.276;9.946;2023-11-21T16:05:11;6.30;99.90
5842;DHT22;2947;52.276;9.946;2023-11-21T16:07:41;6.30;99.90
5842;DHT22;2947;52.276;9.946;2023-11-21T16:10:09;6.30;99.90
5842;DHT22;2947;52.276;9.946;2023-11-21T16:12:40;6.20;99.90
5842;DHT22;2947;52.276;9.946;2023-11-21T16:15:06;6.30;99.90
5842;DHT22;2947;52.276;9.946;2023-11-21T16:17:37;6.20;99.90
5842;DHT22;2947;52.276;9.946;2023-11-21T16:20:04;6.20;99.90
5842;DHT22;2947;52.276;9.946;2023-11-21T16:22:39;7.20;99.90
5842;DHT22;2947;52.276;9.946;2023-11-21T16:25:06;6.20;99.90
5842;DHT22;2947;52.276;9.946;2023-11-21T16:27:40;6.20;99.90
5842;DHT22;2947;52.276;9.946;2023-11-21T16:30:07;6.70;99.90
5842;DHT22;2947;52.276;9.946;2023-11-21T16:32:36;6.30;99.90
5842;DHT22;2947;52.276;9.946;2023-11-21T16:35:03;5.20;99.90
5842;DHT22;2947;52.276;9.946;2023-11-21T16:37:29;6.20;99.90